createdAt,value
2022-08-25T00:00:19.244Z,87.69
2022-08-25T00:01:19.199Z,87.69
2022-08-25T00:02:19.226Z,87.79
2022-08-25T00:03:19.167Z,87.79
2022-08-25T00:04:19.154Z,87.79
2022-08-25T00:05:19.197Z,87.79
2022-08-25T00:06:19.143Z,87.89
2022-08-25T00:07:19.129Z,87.89
2022-08-25T00:08:19.110Z,87.89
2022-08-25T00:09:19.110Z,87.99
2022-08-25T00:10:19.086Z,88.09
2022-08-25T00:11:19.106Z,88.09
2022-08-25T00:12:19.074Z,88.23
2022-08-25T00:13:19.066Z,88.23
2022-08-25T00:14:19.041Z,88.23
2022-08-25T00:15:19.033Z,88.23
2022-08-25T00:16:19.100Z,88.13
2022-08-25T00:17:19.020Z,88.23
2022-08-25T00:18:19.892Z,88.13
2022-08-25T00:19:18.992Z,88.23
2022-08-25T00:20:18.980Z,88.33
2022-08-25T00:21:18.976Z,88.33
2022-08-25T00:22:18.969Z,88.43
2022-08-25T00:23:18.945Z,88.43
2022-08-25T00:24:19.772Z,88.43
2022-08-25T00:25:18.927Z,88.43
2022-08-25T00:26:18.914Z,88.53
2022-08-25T00:27:18.918Z,88.64
2022-08-25T00:28:18.903Z,88.64
2022-08-25T00:29:18.884Z,88.64
2022-08-25T00:30:18.867Z,88.73
2022-08-25T00:31:18.913Z,88.73
2022-08-25T00:32:18.849Z,88.73
2022-08-25T00:33:18.843Z,88.83
2022-08-25T00:34:18.829Z,88.83
2022-08-25T00:35:18.823Z,88.83
2022-08-25T00:36:18.804Z,88.83
2022-08-25T00:37:18.798Z,88.83
2022-08-25T00:38:18.833Z,88.83
2022-08-25T00:39:18.780Z,88.93
2022-08-25T00:40:18.822Z,88.93
2022-08-25T00:41:18.758Z,88.93
2022-08-25T00:42:18.734Z,88.98
2022-08-25T00:43:18.744Z,88.98
2022-08-25T00:44:18.732Z,89.07
2022-08-25T00:45:18.715Z,89.07
2022-08-25T00:46:18.753Z,89.07
2022-08-25T00:47:18.694Z,89.07
2022-08-25T00:48:18.671Z,89.07
2022-08-25T00:49:25.409Z,89.18
2022-08-25T00:50:18.655Z,89.18
2022-08-25T00:51:18.645Z,89.18
2022-08-25T00:52:18.627Z,89.18
2022-08-25T00:53:18.619Z,89.28
2022-08-25T00:54:18.629Z,89.28
2022-08-25T00:55:18.618Z,89.28
2022-08-25T00:56:18.590Z,89.28
2022-08-25T00:57:18.596Z,89.28
2022-08-25T00:58:18.562Z,89.37
2022-08-25T00:59:18.559Z,89.37
2022-08-25T01:00:18.647Z,89.48
2022-08-25T01:01:18.548Z,89.48
2022-08-25T01:02:18.544Z,89.58
2022-08-25T01:03:18.514Z,89.58
2022-08-25T01:04:18.501Z,89.58
2022-08-25T01:05:18.656Z,89.58
2022-08-25T01:06:18.488Z,89.68
2022-08-25T01:07:18.470Z,89.68
2022-08-25T01:08:18.464Z,89.58
2022-08-25T01:09:18.450Z,89.68
2022-08-25T01:10:18.434Z,89.68
2022-08-25T01:11:18.435Z,89.68
2022-08-25T01:12:18.419Z,89.78
2022-08-25T01:13:18.407Z,89.78
2022-08-25T01:14:18.395Z,89.78
2022-08-25T01:15:18.387Z,89.78
2022-08-25T01:16:18.433Z,89.78
2022-08-25T01:17:18.652Z,89.87
2022-08-25T01:18:18.353Z,89.98
2022-08-25T01:19:18.343Z,89.98
2022-08-25T01:20:18.333Z,90.02
2022-08-25T01:21:18.321Z,90.12
2022-08-25T01:22:18.312Z,90.12
2022-08-25T01:23:18.297Z,90.12
2022-08-25T01:24:18.290Z,90.12
2022-08-25T01:25:18.272Z,90.12
2022-08-25T01:26:18.282Z,90.12
2022-08-25T01:27:18.266Z,90.22
2022-08-25T01:28:18.251Z,90.22
2022-08-25T01:29:18.235Z,90.22
2022-08-25T01:30:18.228Z,90.32
2022-08-25T01:31:24.158Z,90.32
2022-08-25T01:32:18.208Z,90.32
2022-08-25T01:33:18.204Z,90.32
2022-08-25T01:34:18.178Z,90.32
2022-08-25T01:35:18.170Z,90.42
2022-08-25T01:36:18.154Z,90.42
2022-08-25T01:37:18.149Z,90.42
2022-08-25T01:38:18.149Z,90.42
2022-08-25T01:39:18.127Z,90.42
2022-08-25T01:40:18.187Z,90.52
2022-08-25T01:41:18.106Z,90.52
2022-08-25T01:42:18.092Z,90.52
2022-08-25T01:43:18.094Z,90.52
2022-08-25T01:44:18.088Z,90.62
2022-08-25T01:45:18.062Z,90.62
2022-08-25T01:46:18.092Z,90.72
2022-08-25T01:47:18.043Z,90.72
2022-08-25T01:48:18.025Z,90.72
2022-08-25T01:49:18.029Z,90.72
2022-08-25T01:50:17.998Z,90.82
2022-08-25T01:51:17.997Z,90.82
2022-08-25T01:52:17.996Z,90.82
2022-08-25T01:53:17.980Z,90.82
2022-08-25T01:54:17.957Z,90.82
2022-08-25T01:55:17.968Z,90.82
2022-08-25T01:56:17.944Z,90.82
2022-08-25T01:57:17.933Z,90.92
2022-08-25T01:58:17.917Z,90.92
2022-08-25T01:59:23.847Z,90.92
2022-08-25T02:00:17.909Z,90.92
2022-08-25T02:01:17.987Z,90.92
2022-08-25T02:02:18.411Z,90.92
2022-08-25T02:03:18.573Z,90.92
2022-08-25T02:04:17.852Z,90.92
2022-08-25T02:05:22.815Z,91.06
2022-08-25T02:06:17.831Z,91.02
2022-08-25T02:07:17.824Z,90.92
2022-08-25T02:08:17.806Z,90.96
2022-08-25T02:09:17.808Z,90.92
2022-08-25T02:10:17.809Z,90.96
2022-08-25T02:11:17.814Z,90.96
2022-08-25T02:12:17.763Z,91.06
2022-08-25T02:13:17.754Z,91.06
2022-08-25T02:14:17.777Z,91.16
2022-08-25T02:15:17.728Z,91.16
2022-08-25T02:16:17.803Z,91.27
2022-08-25T02:17:17.706Z,91.16
2022-08-25T02:18:17.696Z,91.27
2022-08-25T02:19:17.687Z,91.27
2022-08-25T02:20:17.681Z,91.27
2022-08-25T02:21:17.667Z,91.27
2022-08-25T02:22:17.666Z,91.27
2022-08-25T02:23:17.732Z,91.36
2022-08-25T02:24:17.637Z,91.36
2022-08-25T02:25:17.624Z,91.36
2022-08-25T02:26:17.615Z,91.36
2022-08-25T02:27:17.607Z,91.36
2022-08-25T02:28:17.590Z,91.36
2022-08-25T02:29:17.590Z,91.36
2022-08-25T02:30:17.566Z,91.36
2022-08-25T02:31:17.589Z,91.36
2022-08-25T02:32:17.550Z,91.47
2022-08-25T02:33:17.544Z,91.56
2022-08-25T02:34:17.535Z,91.56
2022-08-25T02:35:17.517Z,91.56
2022-08-25T02:36:17.503Z,91.66
2022-08-25T02:37:17.496Z,91.66
2022-08-25T02:38:17.484Z,91.66
2022-08-25T02:39:17.479Z,91.66
2022-08-25T02:40:17.607Z,91.77
2022-08-25T02:41:17.447Z,91.77
2022-08-25T02:42:17.429Z,91.77
2022-08-25T02:43:17.435Z,91.77
2022-08-25T02:44:17.423Z,91.77
2022-08-25T02:45:17.424Z,91.77
2022-08-25T02:46:17.451Z,91.77
2022-08-25T02:47:17.386Z,91.77
2022-08-25T02:48:17.378Z,91.91
2022-08-25T02:49:17.362Z,91.91
2022-08-25T02:50:17.364Z,91.91
2022-08-25T02:51:17.349Z,91.91
2022-08-25T02:52:17.318Z,92.01
2022-08-25T02:53:17.323Z,92.01
2022-08-25T02:54:17.297Z,92.01
2022-08-25T02:55:17.293Z,92.11
2022-08-25T02:56:17.295Z,92.11
2022-08-25T02:57:17.265Z,92.11
2022-08-25T02:58:17.256Z,92.11
2022-08-25T02:59:17.280Z,92.11
2022-08-25T03:00:17.236Z,92.11
2022-08-25T03:01:17.295Z,92.01
2022-08-25T03:02:17.206Z,92.01
2022-08-25T03:03:17.204Z,92.01
2022-08-25T03:04:17.192Z,92.01
2022-08-25T03:05:17.275Z,92.01
2022-08-25T03:06:17.164Z,92.01
2022-08-25T03:07:17.160Z,92.01
2022-08-25T03:08:17.145Z,92.11
2022-08-25T03:09:17.132Z,92.11
2022-08-25T03:10:17.139Z,92.11
2022-08-25T03:11:17.115Z,92.11
2022-08-25T03:12:17.099Z,92.11
2022-08-25T03:13:17.097Z,92.11
2022-08-25T03:14:17.072Z,92.21
2022-08-25T03:15:17.102Z,92.21
2022-08-25T03:16:17.090Z,92.21
2022-08-25T03:17:17.044Z,92.21
2022-08-25T03:18:17.053Z,92.21
2022-08-25T03:19:17.037Z,92.21
2022-08-25T03:20:17.022Z,92.21
2022-08-25T03:21:17.013Z,92.21
2022-08-25T03:22:16.983Z,92.31
2022-08-25T03:23:16.990Z,92.31
2022-08-25T03:24:16.966Z,92.31
2022-08-25T03:25:20.981Z,92.31
2022-08-25T03:26:16.964Z,92.41
2022-08-25T03:27:16.927Z,92.41
2022-08-25T03:28:16.919Z,92.51
2022-08-25T03:29:16.915Z,92.51
2022-08-25T03:30:16.901Z,92.51
2022-08-25T03:31:16.957Z,92.51
2022-08-25T03:32:16.884Z,92.51
2022-08-25T03:33:16.862Z,92.51
2022-08-25T03:34:16.855Z,92.51
2022-08-25T03:35:16.845Z,92.51
2022-08-25T03:36:16.832Z,92.51
2022-08-25T03:37:16.850Z,92.51
2022-08-25T03:38:16.810Z,92.51
2022-08-25T03:39:16.794Z,92.51
2022-08-25T03:40:16.812Z,92.55
2022-08-25T03:41:16.782Z,92.55
2022-08-25T03:42:16.770Z,92.55
2022-08-25T03:43:16.786Z,92.55
2022-08-25T03:44:16.752Z,92.55
2022-08-25T03:45:16.736Z,92.66
2022-08-25T03:46:16.802Z,92.66
2022-08-25T03:47:16.704Z,92.66
2022-08-25T03:48:16.712Z,92.66
2022-08-25T03:49:16.689Z,92.76
2022-08-25T03:50:16.672Z,92.76
2022-08-25T03:51:16.667Z,92.85
2022-08-25T03:52:16.647Z,92.85
2022-08-25T03:53:16.676Z,92.85
2022-08-25T03:54:16.634Z,92.85
2022-08-25T03:55:16.627Z,92.96
2022-08-25T03:56:16.603Z,92.96
2022-08-25T03:57:16.604Z,92.96
2022-08-25T03:58:16.579Z,92.96
2022-08-25T03:59:16.583Z,92.96
2022-08-25T04:00:16.559Z,92.96
2022-08-25T04:01:16.705Z,92.96
2022-08-25T04:02:16.606Z,92.96
2022-08-25T04:03:16.534Z,93.05
2022-08-25T04:04:16.530Z,93.05
2022-08-25T04:05:16.524Z,92.96
2022-08-25T04:06:16.488Z,93.05
2022-08-25T04:07:16.482Z,93.05
2022-08-25T04:08:16.475Z,93.05
2022-08-25T04:09:16.457Z,92.96
2022-08-25T04:10:16.455Z,92.96
2022-08-25T04:11:16.453Z,92.96
2022-08-25T04:12:16.448Z,92.96
2022-08-25T04:13:16.453Z,92.96
2022-08-25T04:14:16.770Z,92.96
2022-08-25T04:15:16.398Z,92.96
2022-08-25T04:16:16.475Z,92.96
2022-08-25T04:17:16.377Z,92.96
2022-08-25T04:18:16.358Z,92.96
2022-08-25T04:19:16.360Z,93.05
2022-08-25T04:20:16.340Z,93.05
2022-08-25T04:21:16.329Z,93.05
2022-08-25T04:22:16.314Z,93.16
2022-08-25T04:23:16.306Z,93.05
2022-08-25T04:24:16.319Z,93.16
2022-08-25T04:25:16.297Z,93.16
2022-08-25T04:26:16.277Z,93.16
2022-08-25T04:27:16.266Z,93.16
2022-08-25T04:28:16.250Z,93.16
2022-08-25T04:29:16.238Z,93.16
2022-08-25T04:30:16.241Z,93.16
2022-08-25T04:31:16.250Z,93.16
2022-08-25T04:32:16.208Z,93.16
2022-08-25T04:33:16.215Z,93.16
2022-08-25T04:34:29.867Z,93.16
2022-08-25T04:35:16.172Z,93.16
2022-08-25T04:36:16.175Z,93.16
2022-08-25T04:37:16.163Z,93.16
2022-08-25T04:38:16.138Z,93.16
2022-08-25T04:39:16.132Z,93.26
2022-08-25T04:40:16.179Z,93.36
2022-08-25T04:41:16.126Z,93.36
2022-08-25T04:42:16.109Z,93.46
2022-08-25T04:43:16.083Z,93.46
2022-08-25T04:44:16.074Z,93.50
2022-08-25T04:45:16.055Z,93.50
2022-08-25T04:46:20.022Z,93.50
2022-08-25T04:47:16.132Z,93.50
2022-08-25T04:48:16.035Z,93.50
2022-08-25T04:49:16.024Z,93.50
2022-08-25T04:50:16.015Z,93.60
2022-08-25T04:51:15.991Z,93.55
2022-08-25T04:52:15.992Z,93.60
2022-08-25T04:53:15.986Z,93.55
2022-08-25T04:54:15.968Z,93.55
2022-08-25T04:55:15.963Z,93.55
2022-08-25T04:56:15.942Z,93.55
2022-08-25T04:57:15.922Z,93.55
2022-08-25T04:58:16.678Z,93.55
2022-08-25T04:59:15.905Z,93.60
2022-08-25T05:00:15.916Z,93.60
2022-08-25T05:01:15.967Z,93.60
2022-08-25T05:02:15.882Z,93.60
2022-08-25T05:03:15.862Z,93.55
2022-08-25T05:04:27.807Z,93.60
2022-08-25T05:05:15.844Z,93.55
2022-08-25T05:06:16.459Z,93.55
2022-08-25T05:07:15.820Z,93.55
2022-08-25T05:08:15.811Z,93.46
2022-08-25T05:09:15.799Z,93.46
2022-08-25T05:10:15.790Z,93.46
2022-08-25T05:11:15.933Z,93.55
2022-08-25T05:12:15.761Z,93.55
2022-08-25T05:13:15.787Z,93.66
2022-08-25T05:14:15.779Z,93.66
2022-08-25T05:15:15.728Z,93.66
2022-08-25T05:16:15.773Z,93.55
2022-08-25T05:17:15.710Z,93.66
2022-08-25T05:18:15.698Z,93.66
2022-08-25T05:19:15.681Z,93.76
2022-08-25T05:20:15.680Z,93.76
2022-08-25T05:21:15.658Z,93.80
2022-08-25T05:22:15.651Z,93.80
2022-08-25T05:23:15.643Z,93.70
2022-08-25T05:24:15.633Z,93.66
2022-08-25T05:25:15.628Z,93.66
2022-08-25T05:26:19.773Z,93.66
2022-08-25T05:27:15.588Z,93.66
2022-08-25T05:28:15.593Z,93.76
2022-08-25T05:29:15.582Z,93.76
2022-08-25T05:30:15.572Z,93.76
2022-08-25T05:31:15.610Z,93.76
2022-08-25T05:32:15.591Z,93.76
2022-08-25T05:33:15.522Z,93.76
2022-08-25T05:34:15.533Z,93.76
2022-08-25T05:35:15.533Z,93.76
2022-08-25T05:36:15.501Z,93.76
2022-08-25T05:37:15.491Z,93.76
2022-08-25T05:38:15.730Z,93.86
2022-08-25T05:39:15.458Z,93.86
2022-08-25T05:40:15.535Z,93.96
2022-08-25T05:41:15.455Z,93.96
2022-08-25T05:42:15.447Z,93.96
2022-08-25T05:43:15.415Z,93.96
2022-08-25T05:44:19.067Z,93.86
2022-08-25T05:45:20.463Z,93.76
2022-08-25T05:46:15.476Z,93.86
2022-08-25T05:47:15.379Z,93.86
2022-08-25T05:48:15.372Z,93.86
2022-08-25T05:49:15.347Z,93.76
2022-08-25T05:50:15.347Z,93.76
2022-08-25T05:51:15.336Z,93.66
2022-08-25T05:52:18.122Z,93.66
2022-08-25T05:53:15.311Z,93.66
2022-08-25T05:54:15.303Z,93.66
2022-08-25T05:55:15.280Z,93.51
2022-08-25T05:56:15.286Z,93.51
2022-08-25T05:57:15.294Z,93.51
2022-08-25T05:58:15.254Z,93.41
2022-08-25T05:59:15.247Z,93.41
2022-08-25T06:00:15.233Z,93.31
2022-08-25T06:01:15.293Z,93.31
2022-08-25T06:02:15.208Z,93.31
2022-08-25T06:03:15.297Z,93.21
2022-08-25T06:04:15.181Z,93.11
2022-08-25T06:05:15.172Z,93.11
2022-08-25T06:06:15.174Z,93.21
2022-08-25T06:07:15.153Z,93.11
2022-08-25T06:08:15.172Z,93.21
2022-08-25T06:09:15.131Z,93.21
2022-08-25T06:10:15.127Z,93.21
2022-08-25T06:11:15.103Z,93.21
2022-08-25T06:12:15.100Z,93.21
2022-08-25T06:13:15.083Z,93.21
2022-08-25T06:14:15.159Z,93.11
2022-08-25T06:15:15.070Z,93.11
2022-08-25T06:16:15.092Z,93.07
2022-08-25T06:17:15.040Z,92.97
2022-08-25T06:18:15.031Z,92.97
2022-08-25T06:19:15.086Z,92.86
2022-08-25T06:20:15.012Z,92.77
2022-08-25T06:21:14.993Z,92.67
2022-08-25T06:22:14.989Z,92.67
2022-08-25T06:23:14.981Z,92.77
2022-08-25T06:24:15.789Z,92.77
2022-08-25T06:25:14.963Z,92.77
2022-08-25T06:26:20.900Z,92.67
2022-08-25T06:27:14.944Z,92.67
2022-08-25T06:28:14.929Z,92.57
2022-08-25T06:29:14.929Z,92.57
2022-08-25T06:30:14.909Z,92.47
2022-08-25T06:31:14.920Z,92.47
2022-08-25T06:32:14.882Z,92.57
2022-08-25T06:33:14.869Z,92.57
2022-08-25T06:34:14.866Z,92.47
2022-08-25T06:35:14.874Z,92.42
2022-08-25T06:36:14.846Z,92.22
2022-08-25T06:37:14.826Z,92.12
2022-08-25T06:38:14.814Z,92.12
2022-08-25T06:39:14.805Z,92.22
2022-08-25T06:40:14.862Z,92.12
2022-08-25T06:41:14.812Z,92.22
2022-08-25T06:42:14.796Z,92.22
2022-08-25T06:43:14.774Z,92.12
2022-08-25T06:44:14.752Z,92.12
2022-08-25T06:45:14.750Z,92.02
2022-08-25T06:46:14.746Z,92.12
2022-08-25T06:47:14.760Z,92.12
2022-08-25T06:48:14.709Z,92.02
2022-08-25T06:49:14.690Z,92.02
2022-08-25T06:50:14.691Z,91.92
2022-08-25T06:51:14.689Z,91.92
2022-08-25T06:52:14.675Z,91.92
2022-08-25T06:53:14.654Z,91.92
2022-08-25T06:54:14.662Z,92.02
2022-08-25T06:55:14.631Z,92.02
2022-08-25T06:56:14.621Z,92.02
2022-08-25T06:57:14.626Z,91.92
2022-08-25T06:58:14.603Z,91.88
2022-08-25T06:59:14.588Z,91.88
2022-08-25T07:00:14.588Z,91.88
2022-08-25T07:01:19.640Z,91.78
2022-08-25T07:02:14.620Z,91.67
2022-08-25T07:03:14.604Z,91.67
2022-08-25T07:04:14.549Z,91.67
2022-08-25T07:05:26.882Z,91.67
2022-08-25T07:06:14.525Z,91.67
2022-08-25T07:07:14.504Z,91.67
2022-08-25T07:08:14.512Z,91.67
2022-08-25T07:09:14.521Z,91.58
2022-08-25T07:10:14.479Z,91.67
2022-08-25T07:11:16.364Z,91.67
2022-08-25T07:12:14.453Z,91.67
2022-08-25T07:13:14.454Z,91.58
2022-08-25T07:14:14.432Z,91.58
2022-08-25T07:15:20.453Z,91.58
2022-08-25T07:16:14.458Z,91.58
2022-08-25T07:17:14.398Z,91.58
2022-08-25T07:18:14.396Z,91.38
2022-08-25T07:19:14.610Z,91.28
2022-08-25T07:20:14.399Z,91.38
2022-08-25T07:21:14.352Z,91.24
2022-08-25T07:22:14.343Z,91.24
2022-08-25T07:23:14.337Z,91.13
2022-08-25T07:24:14.344Z,91.13
2022-08-25T07:25:14.325Z,91.03
2022-08-25T07:27:14.290Z,91.03
2022-08-25T07:28:14.272Z,91.13
2022-08-25T07:29:14.270Z,91.13
2022-08-25T07:30:14.253Z,91.24
2022-08-25T07:31:14.274Z,91.13
2022-08-25T07:32:14.223Z,91.24
2022-08-25T07:33:14.288Z,91.24
2022-08-25T07:34:14.214Z,91.13
2022-08-25T07:35:14.199Z,91.03
2022-08-25T07:36:14.206Z,90.94
2022-08-25T07:37:23.791Z,90.94
2022-08-25T07:38:19.751Z,90.94
2022-08-25T07:39:14.153Z,91.03
2022-08-25T07:40:14.277Z,90.94
2022-08-25T07:41:14.143Z,90.94
2022-08-25T07:42:14.118Z,90.79
2022-08-25T07:43:14.109Z,90.69
2022-08-25T07:44:14.111Z,90.69
2022-08-25T07:45:14.114Z,90.59
2022-08-25T07:46:14.122Z,90.49
2022-08-25T07:47:14.072Z,90.39
2022-08-25T07:48:14.102Z,90.29
2022-08-25T07:49:16.598Z,90.15
2022-08-25T07:50:14.669Z,90.15
2022-08-25T07:51:14.243Z,90.25
2022-08-25T07:52:14.164Z,90.25
2022-08-25T07:53:14.004Z,90.25
2022-08-25T07:54:13.994Z,90.05
2022-08-25T07:55:17.807Z,89.85
2022-08-25T07:56:13.967Z,89.85
2022-08-25T07:57:13.979Z,89.75
2022-08-25T07:58:13.946Z,89.65
2022-08-25T07:59:13.978Z,89.61
2022-08-25T08:00:13.923Z,89.61
2022-08-25T08:01:13.923Z,89.61
2022-08-25T08:02:18.771Z,89.51
2022-08-25T08:03:35.181Z,89.40
2022-08-25T08:04:13.997Z,89.01
2022-08-25T08:05:13.859Z,88.90
2022-08-25T08:06:13.900Z,88.90
2022-08-25T08:07:13.848Z,88.76
2022-08-25T08:08:13.847Z,88.96
2022-08-25T08:09:13.816Z,88.96
2022-08-25T08:11:13.817Z,88.86
2022-08-25T08:12:13.822Z,88.76
2022-08-25T08:13:17.925Z,88.76
2022-08-25T08:14:13.765Z,88.67
2022-08-25T08:15:13.763Z,88.46
2022-08-25T08:16:13.798Z,88.32
2022-08-25T08:17:13.755Z,88.22
2022-08-25T08:18:13.762Z,88.32
2022-08-25T08:19:13.705Z,88.22
2022-08-25T08:20:13.703Z,88.22
2022-08-25T08:21:13.705Z,88.22
2022-08-25T08:22:13.683Z,88.22
2022-08-25T08:23:13.673Z,88.32
2022-08-25T08:24:25.169Z,88.12
2022-08-25T08:25:13.690Z,88.12
2022-08-25T08:26:13.640Z,88.08
2022-08-25T08:27:13.632Z,87.98
2022-08-25T08:28:13.624Z,87.88
2022-08-25T08:29:13.611Z,87.78
2022-08-25T08:30:13.592Z,87.68
2022-08-25T08:31:13.604Z,87.48
2022-08-25T08:32:13.573Z,87.58
2022-08-25T08:33:13.608Z,87.34
2022-08-25T08:34:13.569Z,87.34
2022-08-25T08:35:13.548Z,87.24
2022-08-25T08:36:13.515Z,87.04
2022-08-25T08:37:13.509Z,86.74
2022-08-25T08:38:18.478Z,86.74
2022-08-25T08:39:13.519Z,86.60
2022-08-25T08:40:13.557Z,86.40
2022-08-25T08:41:13.487Z,86.20
2022-08-25T08:42:16.927Z,86.10
2022-08-25T08:43:18.458Z,86.00
2022-08-25T08:44:14.210Z,85.80
2022-08-25T08:45:13.440Z,85.60
2022-08-25T08:46:13.448Z,85.50
2022-08-25T08:47:13.404Z,85.46
2022-08-25T08:48:13.404Z,85.27
2022-08-25T08:49:13.382Z,85.06
2022-08-25T08:50:13.385Z,85.06
2022-08-25T08:51:13.378Z,85.06
2022-08-25T08:52:13.365Z,84.86
2022-08-25T08:53:13.399Z,84.86
2022-08-25T08:54:15.203Z,84.77
2022-08-25T08:55:13.315Z,84.43
2022-08-25T08:56:13.323Z,84.43
2022-08-25T08:57:13.317Z,84.13
2022-08-25T08:58:13.283Z,83.83
2022-08-25T08:59:13.270Z,83.79
2022-08-25T09:00:13.257Z,83.19
2022-08-25T09:01:13.321Z,83.09
2022-08-25T09:02:13.875Z,83.00
2022-08-25T09:03:13.376Z,82.86
2022-08-25T09:04:13.279Z,82.56
2022-08-25T09:05:13.220Z,82.26
2022-08-25T09:06:13.200Z,82.16
2022-08-25T09:07:13.195Z,82.06
2022-08-25T09:08:13.192Z,81.92
2022-08-25T09:09:13.172Z,81.82
2022-08-25T09:10:13.150Z,81.42
2022-08-25T09:11:13.150Z,81.23
2022-08-25T09:12:13.134Z,80.88
2022-08-25T09:13:15.321Z,80.88
2022-08-25T09:14:13.117Z,80.49
2022-08-25T09:15:13.519Z,80.49
2022-08-25T09:16:22.416Z,80.19
2022-08-25T09:17:13.105Z,79.96
2022-08-25T09:18:13.345Z,80.05
2022-08-25T09:19:23.393Z,79.56
2022-08-25T09:20:18.737Z,79.36
2022-08-25T09:21:13.046Z,79.36
2022-08-25T09:22:33.638Z,79.26
2022-08-25T09:23:13.021Z,79.46
2022-08-25T09:24:13.002Z,79.46
2022-08-25T09:25:16.335Z,79.66
2022-08-25T09:26:12.984Z,79.85
2022-08-25T09:27:12.977Z,79.56
2022-08-25T09:28:12.958Z,79.79
2022-08-25T09:29:17.016Z,79.69
2022-08-25T09:30:12.965Z,79.79
2022-08-25T09:31:12.947Z,79.99
2022-08-25T09:32:12.924Z,80.09
2022-08-25T09:33:12.903Z,80.09
2022-08-25T09:34:12.902Z,79.90
2022-08-25T09:35:12.889Z,79.79
2022-08-25T09:36:12.870Z,79.60
2022-08-25T09:37:12.989Z,79.30
2022-08-25T09:38:12.858Z,79.46
2022-08-25T09:39:12.864Z,79.36
2022-08-25T09:40:12.890Z,79.36
2022-08-25T09:41:12.836Z,79.56
2022-08-25T09:42:12.836Z,79.36
2022-08-25T09:43:12.801Z,79.46
2022-08-25T09:44:12.782Z,79.66
2022-08-25T09:45:12.782Z,79.66
2022-08-25T09:46:12.905Z,79.56
2022-08-25T09:47:12.769Z,79.16
2022-08-25T09:48:12.757Z,79.26
2022-08-25T09:49:12.732Z,79.60
2022-08-25T09:50:12.737Z,79.50
2022-08-25T09:51:12.718Z,79.39
2022-08-25T09:52:12.796Z,79.69
2022-08-25T09:53:17.448Z,79.60
2022-08-25T09:54:12.690Z,79.60
2022-08-25T09:55:13.229Z,79.69
2022-08-25T09:56:12.682Z,79.79
2022-08-25T09:57:12.652Z,79.79
2022-08-25T09:58:12.649Z,79.90
2022-08-25T09:59:15.666Z,79.79
2022-08-25T10:00:12.717Z,79.79
2022-08-25T10:01:12.659Z,79.50
2022-08-25T10:02:15.079Z,79.36
2022-08-25T10:03:12.587Z,79.26
2022-08-25T10:04:18.887Z,79.36
2022-08-25T10:05:12.664Z,79.16
2022-08-25T10:06:13.148Z,78.66
2022-08-25T10:07:12.539Z,78.53
2022-08-25T10:08:14.708Z,78.33
2022-08-25T10:09:12.524Z,77.83
2022-08-25T10:10:12.592Z,77.44
2022-08-25T10:11:12.510Z,77.59
2022-08-25T10:12:12.617Z,77.29
2022-08-25T10:13:12.537Z,77.40
2022-08-25T10:14:12.522Z,77.00
2022-08-25T10:15:12.460Z,77.06
2022-08-25T10:16:18.046Z,77.16
2022-08-25T10:17:12.436Z,76.86
2022-08-25T10:18:12.419Z,76.37
2022-08-25T10:19:12.429Z,76.07
2022-08-25T10:20:12.489Z,75.78
2022-08-25T10:21:12.403Z,75.87
2022-08-25T10:22:12.376Z,75.78
2022-08-25T10:23:12.377Z,75.87
2022-08-25T10:24:12.363Z,75.78
2022-08-25T10:25:12.353Z,75.67
2022-08-25T10:26:12.369Z,75.48
2022-08-25T10:27:12.381Z,75.97
2022-08-25T10:28:12.342Z,75.97
2022-08-25T10:29:12.320Z,75.87
2022-08-25T10:30:12.297Z,75.97
2022-08-25T10:31:12.347Z,75.97
2022-08-25T10:32:12.457Z,76.17
2022-08-25T10:33:12.266Z,76.46
2022-08-25T10:34:12.252Z,76.17
2022-08-25T10:35:12.267Z,76.37
2022-08-25T10:36:12.223Z,76.37
2022-08-25T10:37:12.219Z,76.07
2022-08-25T10:38:12.208Z,75.93
2022-08-25T10:39:33.848Z,75.74
2022-08-25T10:40:12.372Z,75.63
2022-08-25T10:41:12.214Z,75.93
2022-08-25T10:42:13.143Z,75.14
2022-08-25T10:43:12.153Z,75.24
2022-08-25T10:44:12.804Z,75.40
2022-08-25T10:45:16.607Z,74.61
2022-08-25T10:46:12.189Z,74.51
2022-08-25T10:47:12.108Z,74.61
2022-08-25T10:48:12.101Z,74.21
2022-08-25T10:49:12.085Z,73.91
2022-08-25T10:50:12.093Z,73.91
2022-08-25T10:51:18.127Z,73.28
2022-08-25T10:52:12.077Z,73.38
2022-08-25T10:53:12.052Z,73.68
2022-08-25T10:54:12.041Z,73.38
2022-08-25T10:55:12.048Z,73.28
2022-08-25T10:56:12.009Z,73.05
2022-08-25T10:57:12.015Z,72.96
2022-08-25T10:58:12.003Z,72.96
2022-08-25T10:59:11.998Z,72.86
2022-08-25T11:00:12.016Z,73.25
2022-08-25T11:01:12.094Z,73.55
2022-08-25T11:02:11.966Z,72.75
2022-08-25T11:03:11.945Z,72.75
2022-08-25T11:04:11.949Z,72.66
2022-08-25T11:05:11.972Z,72.56
2022-08-25T11:06:11.910Z,72.66
2022-08-25T11:07:11.920Z,72.42
2022-08-25T11:08:11.897Z,71.73
2022-08-25T11:09:11.873Z,71.93
2022-08-25T11:10:11.915Z,71.73
2022-08-25T11:11:11.856Z,71.83
2022-08-25T11:12:11.846Z,71.97
2022-08-25T11:13:11.834Z,72.06
2022-08-25T11:14:11.826Z,72.06
2022-08-25T11:15:11.816Z,72.16
2022-08-25T11:16:19.769Z,72.16
2022-08-25T11:17:11.870Z,72.16
2022-08-25T11:18:14.884Z,72.86
2022-08-25T11:19:11.759Z,72.26
2022-08-25T11:20:16.306Z,72.16
2022-08-25T11:21:11.742Z,72.36
2022-08-25T11:22:11.737Z,72.16
2022-08-25T11:23:11.726Z,72.03
2022-08-25T11:24:11.706Z,71.73
2022-08-25T11:25:11.714Z,71.34
2022-08-25T11:26:11.699Z,71.53
2022-08-25T11:27:13.718Z,71.44
2022-08-25T11:28:11.673Z,71.53
2022-08-25T11:29:12.186Z,71.63
2022-08-25T11:30:11.655Z,71.63
2022-08-25T11:31:11.736Z,71.73
2022-08-25T11:32:11.631Z,71.23
2022-08-25T11:33:11.676Z,71.14
2022-08-25T11:34:11.676Z,71.11
2022-08-25T11:35:12.104Z,70.28
2022-08-25T11:36:11.584Z,69.98
2022-08-25T11:37:11.631Z,70.08
2022-08-25T11:38:11.565Z,69.98
2022-08-25T11:39:11.550Z,69.26
2022-08-25T11:40:11.671Z,69.02
2022-08-25T11:41:11.694Z,68.43
2022-08-25T11:42:11.546Z,68.10
2022-08-25T11:43:11.498Z,67.71
2022-08-25T11:44:11.530Z,67.91
2022-08-25T11:45:11.520Z,67.51
2022-08-25T11:46:11.560Z,67.51
2022-08-25T11:47:14.814Z,67.11
2022-08-25T11:48:11.469Z,67.22
2022-08-25T11:49:11.443Z,66.82
2022-08-25T11:50:11.463Z,67.71
2022-08-25T11:51:11.590Z,67.32
2022-08-25T11:52:11.428Z,67.02
2022-08-25T11:53:11.560Z,67.11
2022-08-25T11:54:11.409Z,67.05
2022-08-25T11:55:11.403Z,67.22
2022-08-25T11:56:11.370Z,67.25
2022-08-25T11:57:11.372Z,67.61
2022-08-25T11:58:11.345Z,67.11
2022-08-25T11:59:11.336Z,67.71
2022-08-25T12:00:11.495Z,67.11
2022-08-25T12:01:11.317Z,67.32
2022-08-25T12:02:11.304Z,67.11
2022-08-25T12:03:11.311Z,67.02
2022-08-25T12:04:11.414Z,67.65
2022-08-25T12:05:11.413Z,67.35
2022-08-25T12:06:11.264Z,67.35
2022-08-25T12:07:11.331Z,67.44
2022-08-25T12:08:11.240Z,67.97
2022-08-25T12:09:11.228Z,67.84
2022-08-25T12:10:11.214Z,67.25
2022-08-25T12:11:12.036Z,67.22
2022-08-25T12:12:11.213Z,66.69
2022-08-25T12:13:11.193Z,66.30
2022-08-25T12:14:11.298Z,65.90
2022-08-25T12:15:11.165Z,65.87
2022-08-25T12:16:11.172Z,65.77
2022-08-25T12:17:12.086Z,65.77
2022-08-25T12:18:11.391Z,65.77
2022-08-25T12:19:11.155Z,65.70
2022-08-25T12:20:11.119Z,65.70
2022-08-25T12:21:11.093Z,66.39
2022-08-25T12:22:11.092Z,66.20
2022-08-25T12:23:11.090Z,65.90
2022-08-25T12:24:11.075Z,65.57
2022-08-25T12:25:11.077Z,64.85
2022-08-25T12:26:11.192Z,64.26
2022-08-25T12:27:11.032Z,63.84
2022-08-25T12:28:11.033Z,63.70
2022-08-25T12:29:11.016Z,63.21
2022-08-25T12:30:15.582Z,63.51
2022-08-25T12:31:11.100Z,62.49
2022-08-25T12:32:10.978Z,62.66
2022-08-25T12:33:10.966Z,62.37
2022-08-25T12:34:12.507Z,62.79
2022-08-25T12:35:10.984Z,62.69
2022-08-25T12:36:11.231Z,62.82
2022-08-25T12:37:10.928Z,63.02
2022-08-25T12:38:10.939Z,63.31
2022-08-25T12:39:10.915Z,63.54
2022-08-25T12:40:10.940Z,63.93
2022-08-25T12:41:10.939Z,63.93
2022-08-25T12:42:10.931Z,63.84
2022-08-25T12:43:10.873Z,64.06
2022-08-25T12:44:10.854Z,64.46
2022-08-25T12:45:10.839Z,64.88
2022-08-25T12:46:10.899Z,64.88
2022-08-25T12:47:10.833Z,64.88
2022-08-25T12:48:10.826Z,65.08
2022-08-25T12:49:10.844Z,64.56
2022-08-25T12:50:10.788Z,64.59
2022-08-25T12:51:10.796Z,64.59
2022-08-25T12:52:10.790Z,64.69
2022-08-25T12:53:10.806Z,64.36
2022-08-25T12:54:10.745Z,64.42